Arkoma, Oklahoma
Current Conditions -  °F | °C
As of 11:53 AM on Saturday 25 Oct 2014 (Local Time) from KFSM Reporting Station
Clear Clear  
Wind Chill: 73°   Ceiling: Unl
Heat Index: 73°   Visibility: 10mi
Dew Point: 61°   Wind: 0mph
Humidity: 66%   Direction: NA
Pressure: 30.11"   Gusts: NA
Location:  35.35°N, 94.43°W
Report Text: KFSM 251653Z 00000KT 10SM CLR 23/16 A3011 RMK AO2 SLP193 T02280161
Loading
Personal Weather Stations






























Interactive Weather Map
Tropical Storm Tracking
New forecast layout! Learn more

10-Day Weather Forecast

Advertisements
Track Severe Weather on mobile